Time;durP1;ratioP1;P1;durP2;ratioP2;P2;SDS_P1;SDS_P2;PMS_P1;PMS_P2;Temp;Humidity;BMP_temperature;BMP_pressure;BME280_temperature;BME280_humidity;BME280_pressure;Samples;Min_cycle;Max_cycle;Signal;HPM_P1;HPM_P2
2023/11/26 00:00:50;;;;;;;4.30;2.40;;;;;;;-0.93;89.14;99902.66;106276;1288;70963;-56
2023/11/26 00:03:37;;;;;;;4.90;3.20;;;;;;;-0.95;88.88;99902.61;106314;1288;58383;-57
2023/11/26 00:06:23;;;;;;;5.80;3.00;;;;;;;-0.99;88.88;99902.88;106309;1288;58502;-57
2023/11/26 00:09:10;;;;;;;7.70;3.00;;;;;;;-1.03;88.90;99903.83;106271;1288;73716;-57
2023/11/26 00:11:56;;;;;;;7.40;3.00;;;;;;;-1.06;88.89;99909.55;106261;1288;67450;-57
2023/11/26 00:14:42;;;;;;;;;;;;;;;-1.11;88.89;99914.70;106306;1289;74650;-57
2023/11/26 00:17:28;;;;;;;3.40;2.60;;;;;;;-1.15;88.90;99919.85;106260;1289;58146;-57
2023/11/26 00:20:15;;;;;;;4.20;2.50;;;;;;;-1.20;88.84;99918.73;106290;1289;60085;-57
2023/11/26 00:23:01;;;;;;;4.70;2.90;;;;;;;-1.24;88.81;99922.54;106278;1288;72615;-57
2023/11/26 00:25:47;;;;;;;4.70;2.70;;;;;;;-1.30;88.65;99933.05;106259;1288;68516;-56
2023/11/26 00:28:33;;;;;;;4.70;2.70;;;;;;;-1.37;88.70;99937.49;106272;1289;71372;-57
2023/11/26 00:31:22;;;;;;;3.90;2.60;;;;;;;-1.41;88.73;99944.50;106292;1288;57999;-57
2023/11/26 00:34:08;;;;;;;3.80;2.60;;;;;;;-1.47;88.59;99942.02;106294;1288;58577;-57
2023/11/26 00:36:54;;;;;;;5.80;2.60;;;;;;;-1.50;88.71;99950.73;106282;1288;72468;-57
2023/11/26 00:39:40;;;;;;;4.00;2.80;;;;;;;-1.56;88.70;99951.63;106284;1288;67870;-57
2023/11/26 00:42:26;;;;;;;3.00;2.40;;;;;;;-1.59;88.81;99953.27;106305;1289;71273;-57
2023/11/26 00:45:12;;;;;;;4.10;2.70;;;;;;;-1.62;88.64;99960.98;106208;1291;58634;-57
2023/11/26 00:47:57;;;;;;;4.90;2.50;;;;;;;-1.66;88.53;99960.88;106285;1288;58885;-57
2023/11/26 00:50:43;;;;;;;3.70;2.40;;;;;;;-1.68;88.76;99963.72;106316;1288;74408;-57
2023/11/26 00:53:30;;;;;;;2.60;2.00;;;;;;;-1.68;88.60;99962.70;106279;1289;68362;-57
2023/11/26 00:56:16;;;;;;;4.40;2.50;;;;;;;-1.70;88.60;99961.47;106210;1289;71430;-56
2023/11/26 00:59:02;;;;;;;3.40;2.40;;;;;;;-1.73;88.66;99962.77;106304;1289;57916;-57
2023/11/26 01:01:48;;;;;;;3.70;2.60;;;;;;;-1.72;88.70;99966.50;106290;1288;60207;-56
2023/11/26 01:04:34;;;;;;;6.30;2.40;;;;;;;-1.70;88.89;99972.13;106304;1289;74264;-57
2023/11/26 01:07:20;;;;;;;3.70;2.40;;;;;;;-1.66;88.90;99976.44;106290;1289;67330;-57
2023/11/26 01:10:07;;;;;;;3.20;2.20;;;;;;;-1.62;88.76;99984.13;106284;1289;72815;-56
2023/11/26 01:12:53;;;;;;;5.20;2.40;;;;;;;-1.59;88.85;99983.50;106302;1288;58529;-57
2023/11/26 01:15:39;;;;;;;;;;;;;;;-1.58;88.76;99987.59;106341;1288;58818;-57
2023/11/26 01:18:26;;;;;;;5.30;2.70;;;;;;;-1.58;88.79;99988.27;106331;1288;73542;-57
2023/11/26 01:21:13;;;;;;;3.80;2.40;;;;;;;-1.56;88.70;99992.02;106306;1288;67400;-58
2023/11/26 01:24:00;;;;;;;4.60;2.40;;;;;;;-1.55;88.69;99991.17;106295;1289;72544;-57
2023/11/26 01:26:46;;;;;;;4.10;2.40;;;;;;;-1.52;88.86;99985.32;106335;1289;58481;-57
2023/11/26 01:29:32;;;;;;;4.60;2.40;;;;;;;-1.52;88.87;99986.00;106282;1288;59021;-57
2023/11/26 01:32:18;;;;;;;4.70;2.60;;;;;;;-1.50;89.13;99985.54;106266;1288;72603;-57
2023/11/26 01:35:04;;;;;;;4.20;2.20;;;;;;;-1.49;88.99;99985.23;106282;1288;67278;-58
2023/11/26 01:37:50;;;;;;;3.40;2.10;;;;;;;-1.48;88.82;99987.13;105404;1289;71355;-59
2023/11/26 01:40:38;;;;;;;4.00;2.70;;;;;;;-1.47;88.67;99991.37;104887;1291;60501;-57
2023/11/26 01:43:25;;;;;;;3.60;3.00;;;;;;;-1.47;89.12;99993.55;104997;1289;60380;-57
2023/11/26 01:46:13;;;;;;;5.90;2.60;;;;;;;-1.49;89.24;99996.20;104982;1289;72626;-58
2023/11/26 01:48:59;;;;;;;3.80;2.50;;;;;;;-1.51;88.89;99992.11;105217;1289;67708;-58
2023/11/26 01:51:46;;;;;;;;;;;;;;;-1.53;88.68;99996.11;104944;1291;72040;-59
2023/11/26 01:54:35;;;;;;;4.60;2.30;;;;;;;-1.59;89.09;100004.13;104947;1289;61183;-59
2023/11/26 01:57:22;;;;;;;4.10;2.80;;;;;;;-1.65;88.77;100006.87;104947;1289;63555;-58
2023/11/26 02:00:09;;;;;;;5.00;2.80;;;;;;;-1.72;88.73;100008.90;104931;1289;72644;-59
2023/11/26 02:02:56;;;;;;;4.80;2.40;;;;;;;-1.78;88.57;100011.13;105032;1289;67623;-59
2023/11/26 02:05:43;;;;;;;4.20;2.80;;;;;;;-1.84;88.89;100016.54;104906;1288;70973;-58
2023/11/26 02:08:32;;;;;;;5.10;2.80;;;;;;;-1.90;88.78;100017.26;105723;1288;59769;-58
2023/11/26 02:11:18;;;;;;;3.80;2.50;;;;;;;-1.95;88.96;100020.32;105386;1288;60390;-58
2023/11/26 02:14:04;;;;;;;3.90;2.70;;;;;;;-2.02;88.73;100024.89;104927;1289;75228;-59
2023/11/26 02:16:50;;;;;;;3.20;2.90;;;;;;;-2.08;89.14;100029.47;104928;1289;67281;-59
2023/11/26 02:19:40;;;;;;;7.40;3.80;;;;;;;-2.14;88.91;100026.63;104929;1288;73471;-57
2023/11/26 02:22:28;;;;;;;7.30;3.90;;;;;;;-2.19;88.98;100028.54;104914;1291;60804;-58
2023/11/26 02:25:14;;;;;;;7.30;3.60;;;;;;;-2.21;89.17;100025.11;104909;1289;60394;-58
2023/11/26 02:28:01;;;;;;;5.30;3.30;;;;;;;-2.23;88.93;100027.77;104967;1289;75212;-59
2023/11/26 02:30:47;;;;;;;5.40;3.70;;;;;;;-2.26;89.24;100031.39;104970;1289;67272;-58
2023/11/26 02:33:36;;;;;;;5.60;3.40;;;;;;;-2.28;89.11;100031.34;104942;1294;71250;-58
2023/11/26 02:36:25;;;;;;;8.60;3.30;;;;;;;-2.32;89.35;100032.91;104932;1289;60340;-59
2023/11/26 02:39:11;;;;;;;5.30;3.30;;;;;;;-2.36;89.08;100034.86;105023;1288;61030;-58
2023/11/26 02:41:58;;;;;;;4.90;3.30;;;;;;;-2.39;89.04;100037.63;104973;1289;75116;-58
2023/11/26 02:44:45;;;;;;;7.10;3.20;;;;;;;-2.42;89.03;100032.32;104983;1289;71146;-59
2023/11/26 02:47:31;;;;;;;3.40;2.80;;;;;;;-2.45;88.84;100034.76;104949;1289;71256;-58
2023/11/26 02:50:18;;;;;;;5.10;2.90;;;;;;;-2.50;88.92;100032.25;104913;1289;60690;-59
2023/11/26 02:53:04;;;;;;;5.20;2.70;;;;;;;-2.55;88.67;100040.40;104935;1289;60330;-57
2023/11/26 02:55:50;;;;;;;5.10;2.70;;;;;;;-2.60;88.71;100045.84;104948;1289;72398;-58
2023/11/26 02:58:36;;;;;;;3.40;2.50;;;;;;;-2.65;89.03;100045.73;104889;1288;67360;-58
2023/11/26 03:01:25;;;;;;;3.20;2.20;;;;;;;-2.70;89.13;100043.39;104882;1289;74062;-58
2023/11/26 03:04:13;;;;;;;3.40;2.50;;;;;;;-2.73;89.05;100040.10;104904;1289;60594;-58
2023/11/26 03:07:00;;;;;;;3.80;1.90;;;;;;;-2.75;88.88;100041.55;104908;1289;60069;-58
2023/11/26 03:13:07;;;;;;;;;;;;;;;-2.82;88.87;100043.39;105691;1289;67435;-58
2023/11/26 03:15:54;;;;;;;5.30;2.20;;;;;;;-2.82;89.97;100049.79;104936;1289;71223;-58
2023/11/26 03:18:40;;;;;;;4.40;2.00;;;;;;;-2.81;89.73;100054.89;104904;1289;60443;-58
2023/11/26 03:21:28;;;;;;;2.80;2.20;;;;;;;-2.78;90.32;100059.19;104967;1294;60353;-59
2023/11/26 03:24:18;;;;;;;2.30;1.90;;;;;;;-2.81;89.32;100063.31;104925;1292;74247;-59
2023/11/26 03:27:04;;;;;;;2.30;1.90;;;;;;;-2.84;89.05;100064.23;104898;1289;70669;-58
2023/11/26 03:29:51;;;;;;;2.30;1.90;;;;;;;-2.88;89.55;100069.00;104892;1289;72181;-58
2023/11/26 03:32:37;;;;;;;3.40;1.50;;;;;;;-2.90;89.32;100076.20;104938;1289;60455;-59
2023/11/26 03:35:24;;;;;;;3.90;1.60;;;;;;;-2.91;89.29;100077.86;104876;1289;59608;-58
2023/11/26 03:38:12;;;;;;;4.20;2.20;;;;;;;-2.92;89.03;100079.52;106300;1288;74206;-59
2023/11/26 03:40:58;;;;;;;3.90;2.00;;;;;;;-2.94;88.96;100085.85;106326;1289;67144;-56
2023/11/26 03:43:44;;;;;;;;;;;;;;;-2.96;88.93;100086.65;106294;1289;71309;-58
2023/11/26 03:46:32;;;;;;;2.80;1.70;;;;;;;-2.99;89.19;100094.66;106269;1289;58404;-57
2023/11/26 03:49:18;;;;;;;3.50;1.90;;;;;;;-3.00;89.08;100095.98;106307;1289;58803;-57
2023/11/26 03:52:05;;;;;;;1.90;1.50;;;;;;;-3.01;88.84;100100.17;105364;1289;72516;-59
2023/11/26 03:54:51;;;;;;;4.30;1.60;;;;;;;-3.02;89.11;100103.85;106287;1288;67662;-57
2023/11/26 03:57:37;;;;;;;2.30;1.90;;;;;;;-3.04;89.01;100106.30;106301;1289;71152;-57
2023/11/26 04:00:23;;;;;;;7.40;1.70;;;;;;;-3.03;89.17;100108.70;106294;1291;58168;-57
2023/11/26 04:03:09;;;;;;;2.50;1.40;;;;;;;-3.02;89.22;100110.94;106279;1288;59062;-58
2023/11/26 04:05:56;;;;;;;;;;;;;;;-3.00;89.05;100107.60;106314;1293;72581;-57
2023/11/26 04:08:42;;;;;;;3.80;1.30;;;;;;;-3.03;89.07;100109.38;106327;1289;67247;-56
2023/11/26 04:11:28;;;;;;;2.10;1.60;;;;;;;-3.03;89.03;100109.71;106295;1289;71358;-57
2023/11/26 04:14:15;;;;;;;5.40;2.00;;;;;;;-3.02;89.02;100109.73;106260;1289;58093;-56
2023/11/26 04:17:01;;;;;;;3.70;1.80;;;;;;;-3.01;88.99;100108.59;106295;1289;58991;-57
2023/11/26 04:19:51;;;;;;;2.60;2.10;;;;;;;-2.98;89.03;100113.39;106299;1289;72448;-57
2023/11/26 04:22:37;;;;;;;3.80;1.70;;;;;;;-2.98;89.35;100115.92;106280;1289;68139;-57
2023/11/26 04:25:23;;;;;;;2.40;1.70;;;;;;;-2.97;89.22;100117.47;106289;1289;72264;-57
2023/11/26 04:28:09;;;;;;;3.20;1.90;;;;;;;-2.98;88.81;100123.67;106282;1288;58529;-57
2023/11/26 04:30:55;;;;;;;;;;;;;;;-3.01;88.80;100125.30;106330;1289;59032;-56
2023/11/26 04:33:41;;;;;;;4.90;2.00;;;;;;;-3.02;89.07;100128.29;106299;1288;73832;-58
2023/11/26 04:36:28;;;;;;;1.90;1.40;;;;;;;-3.04;88.90;100130.26;106303;1289;67336;-57
2023/11/26 04:39:14;;;;;;;3.80;2.00;;;;;;;-3.09;88.75;100132.47;106271;1289;72405;-57
2023/11/26 04:42:01;;;;;;;7.50;3.10;;;;;;;-3.14;88.63;100135.54;106270;1289;58471;-56
2023/11/26 04:44:47;;;;;;;6.20;2.60;;;;;;;-3.19;88.47;100138.56;106298;1289;59078;-57
2023/11/26 04:47:35;;;;;;;8.20;3.70;;;;;;;-3.24;88.46;100137.73;106305;1289;72610;-57
2023/11/26 04:50:21;;;;;;;3.90;2.70;;;;;;;-3.26;88.56;100136.48;106307;1288;68567;-56
2023/11/26 04:53:07;;;;;;;2.70;1.70;;;;;;;-3.28;88.71;100141.64;106287;1288;72484;-57
2023/11/26 04:55:53;;;;;;;4.30;1.80;;;;;;;-3.30;89.30;100148.52;106268;1289;59068;-56
2023/11/26 04:58:39;;;;;;;5.00;1.60;;;;;;;-3.29;89.36;100149.05;106283;1288;58616;-58
2023/11/26 05:01:25;;;;;;;4.80;2.00;;;;;;;-3.29;89.05;100153.58;106255;1289;73464;-57
2023/11/26 05:04:13;;;;;;;3.20;2.10;;;;;;;-3.35;88.75;100161.15;106324;1289;67394;-57
2023/11/26 05:06:59;;;;;;;5.00;2.20;;;;;;;-3.38;88.82;100163.74;106273;1289;71974;-57
2023/11/26 05:09:45;;;;;;;2.80;2.00;;;;;;;-3.40;88.80;100163.69;105999;1288;367193;-58
2023/11/26 05:12:30;;;;;;;3.00;2.10;;;;;;;-3.42;89.05;100157.23;102239;1289;5003634;-57
2023/11/26 05:15:17;;;;;;;3.00;2.00;;;;;;;-3.43;88.80;100161.42;106225;1288;67227;-57
2023/11/26 05:18:03;;;;;;;;;;;;;;;-3.43;88.81;100165.43;106249;1289;71197;-57
2023/11/26 05:20:49;;;;;;;2.60;1.70;;;;;;;-3.46;88.82;100165.02;106202;1289;59294;-57
2023/11/26 05:23:35;;;;;;;4.00;1.70;;;;;;;-3.47;89.27;100169.84;106255;1289;59051;-57
2023/11/26 05:26:21;;;;;;;2.60;1.40;;;;;;;-3.47;89.10;100173.38;106241;1288;72417;-57
2023/11/26 05:29:08;;;;;;;3.50;2.00;;;;;;;-3.51;88.81;100175.95;106259;1289;67581;-57
2023/11/26 05:31:54;;;;;;;4.50;2.30;;;;;;;-3.53;88.92;100182.63;106258;1289;71208;-57
2023/11/26 05:34:41;;;;;;;;;;;;;;;-3.55;89.18;100187.30;106222;1289;58122;-57
2023/11/26 05:37:27;;;;;;;3.00;1.80;;;;;;;-3.58;88.89;100194.42;106260;1289;58566;-57
2023/11/26 05:40:13;;;;;;;3.80;2.70;;;;;;;-3.61;89.44;100197.34;106232;1289;73351;-57
2023/11/26 05:42:59;;;;;;;4.80;2.90;;;;;;;-3.62;89.12;100200.84;106250;1289;68380;-58
2023/11/26 05:45:45;;;;;;;;;;;;;;;-3.63;88.90;100201.66;106276;1289;72527;-57
2023/11/26 05:48:31;;;;;;;4.70;2.70;;;;;;;-3.64;89.39;100202.31;106261;1289;58335;-57
2023/11/26 05:51:22;;;;;;;8.00;3.40;;;;;;;-3.66;89.09;100207.31;106236;1289;59993;-58
2023/11/26 05:54:07;;;;;;;3.80;2.40;;;;;;;-3.70;88.76;100208.70;106216;1294;73684;-57
2023/11/26 05:56:54;;;;;;;3.00;2.20;;;;;;;-3.69;89.32;100208.04;106185;1288;67874;-57
2023/11/26 05:59:39;;;;;;;;;;;;;;;-3.71;89.11;100209.69;106203;1289;72483;-58
2023/11/26 06:02:26;;;;;;;2.60;1.60;;;;;;;-3.71;90.51;100210.17;106234;1289;58403;-57
2023/11/26 06:05:12;;;;;;;3.10;2.00;;;;;;;-3.74;89.65;100213.08;106233;1289;58752;-57
2023/11/26 06:07:58;;;;;;;3.00;1.90;;;;;;;-3.77;90.08;100212.16;106263;1289;72822;-58
2023/11/26 06:10:44;;;;;;;4.00;2.30;;;;;;;-3.76;90.07;100211.84;106264;1289;67959;-57
2023/11/26 06:13:30;;;;;;;1.80;1.20;;;;;;;-3.76;89.42;100214.02;106218;1289;72290;-57
2023/11/26 06:16:16;;;;;;;4.20;2.40;;;;;;;-3.78;89.32;100219.67;106254;1289;59686;-57
2023/11/26 06:19:02;;;;;;;2.40;1.70;;;;;;;-3.81;89.13;100224.47;106293;1289;61104;-58
2023/11/26 06:21:48;;;;;;;3.30;1.90;;;;;;;-3.82;89.64;100228.47;106182;1289;72293;-57
2023/11/26 06:24:34;;;;;;;1.90;1.20;;;;;;;-3.84;89.18;100231.60;106205;1288;68827;-58
2023/11/26 06:27:20;;;;;;;;;;;;;;;-3.85;89.64;100232.42;106277;1288;71199;-58
2023/11/26 06:30:07;;;;;;;2.50;1.70;;;;;;;-3.82;89.84;100240.94;105171;1291;60398;-58
2023/11/26 06:32:54;;;;;;;2.30;1.50;;;;;;;-3.82;89.17;100241.29;106206;1294;59083;-58
2023/11/26 06:35:40;;;;;;;2.20;1.30;;;;;;;-3.85;88.93;100243.02;106235;1289;73573;-57
2023/11/26 06:38:26;;;;;;;;;;;;;;;-3.88;88.83;100246.27;105909;1291;67550;-57
2023/11/26 06:41:28;;;;;;;1.30;1.20;;;;;;;-3.89;89.07;100250.77;104913;1294;71272;-58
2023/11/26 06:44:14;;;;;;;1.50;1.40;;;;;;;-3.91;89.31;100253.91;104954;1289;60336;-57
2023/11/26 06:47:01;;;;;;;4.70;1.80;;;;;;;-3.89;89.11;100252.63;101023;1289;5003979;-57
2023/11/26 06:49:47;;;;;;;3.20;2.10;;;;;;;-3.87;89.16;100252.73;106241;1293;73951;-59
2023/11/26 06:52:33;;;;;;;;;;;;;;;-3.87;89.53;100254.05;106223;1289;67423;-59
2023/11/26 06:55:19;;;;;;;3.80;1.80;;;;;;;-3.86;89.64;100250.70;106251;1289;71944;-59
2023/11/26 06:58:06;;;;;;;2.80;1.70;;;;;;;-3.86;89.76;100251.42;105783;1289;61362;-58
2023/11/26 07:00:53;;;;;;;3.70;1.80;;;;;;;-3.84;89.32;100255.52;104837;1289;59298;-57
2023/11/26 07:03:40;;;;;;;2.60;1.90;;;;;;;-3.82;89.35;100258.29;104819;1288;71383;-58
2023/11/26 07:06:26;;;;;;;4.30;2.00;;;;;;;-3.76;89.67;100259.00;106255;1289;67463;-60
2023/11/26 07:09:15;;;;;;;14.00;6.50;;;;;;;-3.72;89.42;100266.56;105040;1293;71225;-58
2023/11/26 07:12:01;;;;;;;26.10;19.60;;;;;;;-3.66;89.28;100270.47;104845;1289;59764;-59
2023/11/26 07:14:50;;;;;;;48.00;30.40;;;;;;;-3.56;89.34;100270.77;104907;1294;60559;-58
2023/11/26 07:17:37;;;;;;;140.00;70.50;;;;;;;-3.44;89.92;100272.91;104918;1289;72489;-57
2023/11/26 07:20:23;;;;;;;29.90;17.50;;;;;;;-3.28;89.62;100272.61;104865;1292;68607;-58
2023/11/26 07:23:09;;;;;;;68.00;41.50;;;;;;;-3.04;90.04;100273.89;104866;1294;75200;-56
2023/11/26 07:25:55;;;;;;;191.10;78.20;;;;;;;-2.82;90.01;100277.46;104914;1288;60578;-58
2023/11/26 07:28:42;;;;;;;32.40;17.00;;;;;;;-2.59;89.57;100276.50;104881;1289;60578;-58
2023/11/26 07:31:29;;;;;;;25.50;13.70;;;;;;;-2.39;89.42;100277.12;104870;1290;73057;-58
2023/11/26 07:34:15;;;;;;;52.80;24.80;;;;;;;-2.25;89.30;100275.85;105707;1289;67207;-57
2023/11/26 07:37:02;;;;;;;23.50;11.10;;;;;;;-1.95;89.13;100280.77;104753;1294;71539;-58
2023/11/26 07:39:48;;;;;;;;;;;;;;;-1.69;88.56;100278.14;104850;1288;60598;-57
2023/11/26 07:42:34;;;;;;;44.60;19.30;;;;;;;-1.29;89.14;100276.13;104840;1289;60427;-59
2023/11/26 07:45:20;;;;;;;;;;;;;;;-0.85;87.36;100280.45;104903;1291;71927;-57
2023/11/26 07:48:07;;;;;;;53.90;22.50;;;;;;;-0.71;86.63;100279.77;104861;1289;67305;-58
2023/11/26 07:50:54;;;;;;;123.50;52.30;;;;;;;-0.45;87.62;100276.82;104822;1295;71139;-58
2023/11/26 07:53:41;;;;;;;158.10;68.10;;;;;;;-0.62;86.45;100282.36;104852;1295;60444;-58
2023/11/26 07:56:27;;;;;;;57.60;35.00;;;;;;;-0.87;85.76;100290.04;106234;1289;59375;-59
2023/11/26 07:59:13;;;;;;;38.00;27.20;;;;;;;-1.02;86.71;100294.59;106193;1289;72334;-59
2023/11/26 08:01:59;;;;;;;8.00;7.20;;;;;;;-0.98;88.12;100292.80;106225;1288;67509;-59
2023/11/26 08:04:45;;;;;;;19.30;13.20;;;;;;;-0.95;88.21;100292.88;106241;1289;71166;-58
2023/11/26 08:07:31;;;;;;;112.30;67.60;;;;;;;-0.95;88.01;100291.38;106245;1290;58347;-57
2023/11/26 08:10:26;;;;;;;13.10;7.80;;;;;;;-1.00;88.10;100299.54;106276;1289;59168;-59
2023/11/26 08:13:12;;;;;;;40.60;25.70;;;;;;;-1.03;88.39;100306.05;106261;1289;72789;-58
2023/11/26 08:15:58;;;;;;;14.90;10.00;;;;;;;-1.03;88.28;100308.45;106218;1289;67485;-60
2023/11/26 08:18:45;;;;;;;7.90;7.00;;;;;;;-1.08;87.97;100315.60;106216;1289;72116;-60
2023/11/26 08:21:34;;;;;;;230.80;138.50;;;;;;;-1.02;88.09;100318.61;106247;1288;58508;-59
2023/11/26 08:24:20;;;;;;;150.90;80.00;;;;;;;-0.97;87.89;100317.88;106237;1289;60336;-59
2023/11/26 08:27:07;;;;;;;32.90;18.30;;;;;;;-0.98;86.80;100323.94;106251;1289;72473;-59
2023/11/26 08:29:58;;;;;;;6.90;5.20;;;;;;;-0.93;87.25;100327.11;106170;1288;68565;-59
2023/11/26 08:32:49;;;;;;;8.30;5.70;;;;;;;-1.00;87.39;100329.81;106229;1289;71385;-59
2023/11/26 08:35:36;;;;;;;9.70;7.30;;;;;;;-1.06;87.29;100334.92;106251;1292;58122;-59
2023/11/26 08:38:23;;;;;;;7.50;5.50;;;;;;;-1.10;86.84;100335.68;106270;1289;58818;-57
2023/11/26 08:41:13;;;;;;;7.80;6.20;;;;;;;-1.10;86.61;100338.06;106239;1289;74585;-60
2023/11/26 08:44:00;;;;;;;5.10;3.90;;;;;;;-1.07;87.55;100338.45;106242;1289;68547;-60
2023/11/26 08:46:47;;;;;;;6.50;5.90;;;;;;;-0.92;87.93;100340.16;106245;1289;71975;-58
2023/11/26 08:49:33;;;;;;;13.90;10.20;;;;;;;-0.84;87.98;100344.28;106210;1289;58451;-58
2023/11/26 08:52:19;;;;;;;3.00;2.20;;;;;;;-0.77;88.24;100351.05;106251;1289;58929;-56
2023/11/26 08:55:06;;;;;;;3.40;2.70;;;;;;;-0.69;87.89;100348.21;106220;1289;74426;-57
2023/11/26 08:57:52;;;;;;;3.90;3.60;;;;;;;-0.11;87.56;100343.63;106149;1289;67445;-57
2023/11/26 09:00:37;;;;;;;5.70;3.90;;;;;;;0.63;83.55;100341.61;106222;1288;71296;-57
2023/11/26 09:03:25;;;;;;;3.80;2.70;;;;;;;0.84;84.73;100345.40;105141;1289;61262;-56
2023/11/26 09:06:11;;;;;;;5.00;4.60;;;;;;;1.85;86.97;100346.36;102357;1289;5003538;-57
2023/11/26 09:09:03;;;;;;;2.40;2.10;;;;;;;2.63;83.46;100348.07;105760;1289;73273;-56
2023/11/26 09:11:50;;;;;;;3.10;2.00;;;;;;;2.83;75.79;100345.05;104854;1293;69411;-55
2023/11/26 09:14:36;;;;;;;2.70;2.10;;;;;;;2.88;81.06;100343.41;106258;1289;71799;-57
2023/11/26 09:17:22;;;;;;;3.70;2.80;;;;;;;3.13;82.27;100339.23;106191;1288;58568;-55
2023/11/26 09:20:12;;;;;;;3.60;2.70;;;;;;;3.03;83.49;100345.11;106173;1288;60815;-53
2023/11/26 09:22:58;;;;;;;6.60;6.00;;;;;;;2.21;75.28;100342.97;106235;1289;72491;-54
2023/11/26 09:25:44;;;;;;;3.00;2.10;;;;;;;1.97;78.57;100345.05;106225;1289;67521;-55
2023/11/26 09:28:31;;;;;;;3.90;3.40;;;;;;;1.99;78.82;100346.77;106225;1289;72702;-56
2023/11/26 09:31:17;;;;;;;4.40;3.60;;;;;;;2.24;82.88;100350.99;106260;1289;58985;-55
2023/11/26 09:34:02;;;;;;;8.30;6.60;;;;;;;2.05;78.30;100358.24;106214;1289;58989;-54
2023/11/26 09:36:50;;;;;;;3.40;2.70;;;;;;;2.11;80.50;100355.93;106225;1289;72494;-56
2023/11/26 09:39:36;;;;;;;8.60;6.30;;;;;;;2.20;80.07;100354.00;106246;1289;67954;-55
2023/11/26 09:42:23;;;;;;;5.60;3.30;;;;;;;2.27;79.72;100352.58;106229;1289;71454;-54
2023/11/26 09:45:12;;;;;;;4.40;3.30;;;;;;;2.54;82.50;100353.42;106254;1289;58362;-55
2023/11/26 09:47:58;;;;;;;28.70;17.50;;;;;;;2.54;80.36;100353.61;106266;1289;58708;-59
2023/11/26 09:50:51;;;;;;;4.40;3.60;;;;;;;2.60;81.47;100353.99;106223;1289;73772;-56
2023/11/26 09:53:38;;;;;;;3.80;2.50;;;;;;;3.59;84.30;100348.98;106207;1289;67532;-55
2023/11/26 09:56:24;;;;;;;3.10;2.20;;;;;;;4.42;78.90;100347.77;106205;1289;71148;-55
2023/11/26 09:59:27;;;;;;;2.50;2.10;;;;;;;5.28;77.77;100347.64;106243;1288;58401;-55
2023/11/26 10:02:13;;;;;;;1.90;1.80;;;;;;;5.95;77.94;100348.98;106257;1288;59138;-54
2023/11/26 10:05:00;;;;;;;15.90;9.00;;;;;;;6.90;82.02;100344.16;106238;1288;74272;-56
2023/11/26 10:07:52;;;;;;;10.80;6.10;;;;;;;7.83;79.18;100341.92;106241;1288;67216;-55
2023/11/26 10:10:49;;;;;;;15.30;3.70;;;;;;;8.12;74.52;100341.80;106245;1289;71722;-54
2023/11/26 10:13:40;;;;;;;17.30;6.00;;;;;;;8.31;76.58;100342.97;106200;1289;58334;-54
2023/11/26 10:16:32;;;;;;;13.90;9.70;;;;;;;8.69;73.17;100336.17;106173;1289;59387;-54
2023/11/26 10:19:26;;;;;;;116.30;17.60;;;;;;;8.91;74.47;100337.75;106166;1289;72596;-57
2023/11/26 10:22:12;;;;;;;41.20;12.40;;;;;;;9.36;72.91;100339.15;106111;1289;67364;-57
2023/11/26 10:25:11;;;;;;;38.00;12.30;;;;;;;9.16;75.76;100338.25;106170;1289;71879;-57
2023/11/26 10:27:59;;;;;;;32.50;17.10;;;;;;;9.72;71.87;100341.29;106204;1288;58447;-57
2023/11/26 10:30:46;;;;;;;28.70;11.10;;;;;;;8.92;69.39;100340.83;106133;1289;58847;-56
2023/11/26 10:33:32;;;;;;;32.20;7.60;;;;;;;8.67;69.11;100344.77;106191;1288;73759;-57
2023/11/26 10:36:32;;;;;;;16.20;6.00;;;;;;;8.12;72.02;100339.23;106148;1288;69047;-57
2023/11/26 10:39:18;;;;;;;12.90;5.70;;;;;;;7.33;66.97;100340.64;106156;1289;72646;-57
2023/11/26 10:42:04;;;;;;;10.10;8.10;;;;;;;8.28;77.50;100340.76;106207;1289;58404;-57
2023/11/26 10:44:53;;;;;;;47.20;11.80;;;;;;;9.00;69.70;100339.68;106232;1288;61090;-57
2023/11/26 10:47:40;;;;;;;36.40;12.50;;;;;;;8.40;55.19;100342.52;106148;1288;72563;-58
2023/11/26 10:50:28;;;;;;;56.50;14.70;;;;;;;8.28;63.41;100340.60;106184;1288;68243;-57
2023/11/26 10:54:13;;;;;;;86.00;16.40;;;;;;;8.62;66.49;100341.75;106197;1292;71383;-57
2023/11/26 10:57:09;;;;;;;60.80;13.50;;;;;;;9.70;73.63;100341.14;105978;1288;58315;-57
2023/11/26 11:00:01;;;;;;;58.50;11.50;;;;;;;10.72;70.87;100338.85;106264;1288;60529;-58
2023/11/26 11:02:48;;;;;;;95.00;21.10;;;;;;;10.60;67.64;100339.13;106175;1292;73665;-57
2023/11/26 11:05:34;;;;;;;23.40;7.90;;;;;;;10.72;75.15;100333.71;106238;1288;67468;-57
2023/11/26 11:08:20;;;;;;;34.10;9.70;;;;;;;10.96;75.49;100327.80;106219;1289;71154;-58
2023/11/26 11:11:13;;;;;;;38.00;11.00;;;;;;;11.36;76.37;100326.88;106264;1289;58203;-57
2023/11/26 11:13:59;;;;;;;28.10;11.10;;;;;;;11.68;67.67;100329.88;106248;1288;59037;-57
2023/11/26 11:16:45;;;;;;;33.80;9.90;;;;;;;11.43;68.05;100332.58;106220;1288;73541;-58
2023/11/26 11:19:50;;;;;;;49.80;12.20;;;;;;;10.94;67.94;100335.63;106264;1289;70222;-57
2023/11/26 11:22:39;;;;;;;54.70;13.60;;;;;;;10.95;66.22;100336.44;106247;1288;72399;-57
2023/11/26 11:25:25;;;;;;;136.90;20.50;;;;;;;10.66;65.75;100335.04;106262;1288;58384;-58
2023/11/26 11:28:12;;;;;;;71.00;18.00;;;;;;;11.55;71.56;100335.37;106267;1288;60020;-58
2023/11/26 11:30:58;;;;;;;109.60;20.50;;;;;;;11.61;60.57;100331.27;106235;1288;73742;-57
2023/11/26 11:33:56;;;;;;;55.60;12.10;;;;;;;11.36;58.79;100336.18;106256;1288;67461;-57
2023/11/26 11:36:44;;;;;;;96.90;20.20;;;;;;;10.86;64.87;100339.93;105797;1289;73139;-57
2023/11/26 11:39:49;;;;;;;84.10;21.00;;;;;;;10.95;51.46;100335.42;104843;1289;60492;-57
2023/11/26 11:42:35;;;;;;;82.30;14.70;;;;;;;11.25;64.24;100337.67;104902;1289;61063;-57
2023/11/26 11:45:29;;;;;;;89.80;28.30;;;;;;;11.30;54.17;100341.15;104893;1289;71375;-57
2023/11/26 11:48:37;;;;;;;97.40;22.10;;;;;;;11.20;61.35;100340.37;106244;1289;67454;-56
2023/11/26 11:51:34;;;;;;;77.70;18.80;;;;;;;10.39;54.35;100341.42;106189;1289;72499;-57
2023/11/26 11:54:23;;;;;;;108.50;22.60;;;;;;;10.39;61.05;100345.77;106242;1289;58629;-57
2023/11/26 11:57:14;;;;;;;28.00;7.50;;;;;;;9.08;53.02;100348.98;105374;1291;59794;-56
2023/11/26 12:00:04;;;;;;;17.20;9.10;;;;;;;7.74;55.96;100342.16;105256;1289;72634;-57
2023/11/26 12:02:54;;;;;;;30.10;8.80;;;;;;;7.81;61.59;100339.70;104904;1289;67486;-56
2023/11/26 12:05:40;;;;;;;16.60;4.70;;;;;;;8.83;59.64;100344.40;105295;1289;71417;-57
2023/11/26 12:08:26;;;;;;;17.90;4.50;;;;;;;8.97;58.48;100340.92;104923;1289;60501;-56
2023/11/26 12:11:12;;;;;;;7.90;7.30;;;;;;;8.52;54.02;100341.86;104843;1289;63198;-56
2023/11/26 12:13:58;;;;;;;11.70;7.60;;;;;;;8.13;59.36;100342.81;104817;1290;74423;-56
2023/11/26 12:16:46;;;;;;;55.20;9.40;;;;;;;8.80;59.67;100342.55;104833;1289;70880;-56
2023/11/26 12:19:43;;;;;;;30.00;7.70;;;;;;;9.10;56.15;100342.80;104767;1292;73079;-55
2023/11/26 12:22:29;;;;;;;51.90;10.70;;;;;;;8.36;52.54;100342.55;104796;1289;60437;-55
2023/11/26 12:25:21;;;;;;;40.40;7.40;;;;;;;8.24;57.17;100333.09;104890;1288;59292;-55
2023/11/26 12:28:09;;;;;;;42.70;10.40;;;;;;;8.80;55.90;100331.73;104774;1289;72499;-55
2023/11/26 12:30:56;;;;;;;61.40;9.90;;;;;;;9.32;57.33;100329.05;106129;1287;67318;-55
2023/11/26 12:33:43;;;;;;;39.30;7.80;;;;;;;9.67;59.08;100326.06;104754;1289;73173;-56
2023/11/26 12:36:30;;;;;;;57.90;10.50;;;;;;;10.37;60.93;100327.69;104747;1292;60342;-54
2023/11/26 12:39:17;;;;;;;;;;;;;;;10.24;52.60;100330.69;104753;1292;60245;-55
2023/11/26 12:42:04;;;;;;;21.90;8.50;;;;;;;9.44;53.53;100332.98;104751;1289;73416;-55
2023/11/26 12:44:50;;;;;;;28.70;7.80;;;;;;;9.47;57.44;100336.71;106177;1289;69303;-56
2023/11/26 12:47:50;;;;;;;26.10;9.40;;;;;;;9.20;54.49;100337.66;106026;1290;72372;-56
2023/11/26 12:50:44;;;;;;;27.60;8.90;;;;;;;8.52;55.69;100338.61;106136;1289;58201;-56
2023/11/26 12:53:30;;;;;;;13.40;5.50;;;;;;;8.58;59.56;100332.35;106164;1288;58992;-56
2023/11/26 12:56:21;;;;;;;17.40;3.80;;;;;;;8.70;56.75;100335.12;106163;1289;72575;-55